createdAt,value
2022-08-19T00:01:30.281Z,89.30
2022-08-19T00:04:02.493Z,90.30
2022-08-19T00:06:30.482Z,90.30
2022-08-19T00:08:58.830Z,90.30
2022-08-19T00:11:26.896Z,90.90
2022-08-19T00:13:54.457Z,91.40
2022-08-19T00:16:26.191Z,91.70
2022-08-19T00:18:54.191Z,91.50
2022-08-19T00:21:20.879Z,91.80
2022-08-19T00:23:47.584Z,91.90
2022-08-19T00:26:14.852Z,91.90
2022-08-19T00:28:42.063Z,92.30
2022-08-19T00:31:10.226Z,92.30
2022-08-19T00:33:37.748Z,92.20
2022-08-19T00:36:07.346Z,92.20
2022-08-19T00:38:38.092Z,92.70
2022-08-19T00:41:06.641Z,93.20
2022-08-19T00:43:33.999Z,93.30
2022-08-19T00:46:02.368Z,93.30
2022-08-19T00:48:29.265Z,93.50
2022-08-19T00:50:56.511Z,93.30
2022-08-19T00:53:27.363Z,93.00
2022-08-19T00:55:57.362Z,93.30
2022-08-19T00:58:29.114Z,93.70
2022-08-19T01:00:55.890Z,93.40
2022-08-19T01:03:23.300Z,93.50
2022-08-19T01:05:52.779Z,93.80
2022-08-19T01:08:20.974Z,93.80
2022-08-19T01:10:52.887Z,94.10
2022-08-19T01:13:23.318Z,93.80
2022-08-19T01:16:01.479Z,93.70
2022-08-19T01:18:29.927Z,93.50
2022-08-19T01:20:59.546Z,93.80
2022-08-19T01:23:43.337Z,94.00
2022-08-19T01:26:22.443Z,94.00
2022-08-19T01:28:53.602Z,94.20
2022-08-19T01:31:27.117Z,94.40
2022-08-19T01:33:56.359Z,94.50
2022-08-19T01:36:28.428Z,94.20
2022-08-19T01:38:56.021Z,94.20
2022-08-19T01:41:24.561Z,94.40
2022-08-19T01:44:13.665Z,94.50
2022-08-19T01:46:40.555Z,93.90
2022-08-19T01:49:08.864Z,94.20
2022-08-19T01:51:39.839Z,94.20
2022-08-19T01:54:10.964Z,93.90
2022-08-19T01:56:39.488Z,93.80
2022-08-19T01:59:12.158Z,93.90
2022-08-19T02:01:38.903Z,93.70
2022-08-19T02:04:06.662Z,93.90
2022-08-19T02:06:34.055Z,93.70
2022-08-19T02:09:01.339Z,93.80
2022-08-19T02:11:32.545Z,94.20
2022-08-19T02:14:00.844Z,93.80
2022-08-19T02:16:27.577Z,93.90
2022-08-19T02:18:54.447Z,94.20
2022-08-19T02:21:23.816Z,94.10
2022-08-19T02:23:52.073Z,94.20
2022-08-19T02:26:19.649Z,93.90
2022-08-19T02:28:46.984Z,93.90
2022-08-19T02:31:18.368Z,93.70
2022-08-19T02:33:46.498Z,93.90
2022-08-19T02:36:15.545Z,93.90
2022-08-19T02:38:43.197Z,94.10
2022-08-19T02:41:20.697Z,94.20
2022-08-19T02:44:26.447Z,94.50
2022-08-19T02:46:37.428Z,94.60
2022-08-19T02:49:06.665Z,94.70
2022-08-19T02:51:39.436Z,94.60
2022-08-19T02:54:07.774Z,94.80
2022-08-19T02:56:38.948Z,94.80
2022-08-19T02:59:11.294Z,95.20
2022-08-19T03:01:41.517Z,95.20
2022-08-19T03:04:10.663Z,95.10
2022-08-19T03:06:40.175Z,95.20
2022-08-19T03:09:06.909Z,95.00
2022-08-19T03:11:34.452Z,95.10
2022-08-19T03:14:03.353Z,95.00
2022-08-19T03:16:33.642Z,95.00
2022-08-19T03:19:01.758Z,94.80
2022-08-19T03:21:32.101Z,95.10
2022-08-19T03:24:01.519Z,95.00
2022-08-19T03:26:28.671Z,95.20
2022-08-19T03:28:57.849Z,95.60
2022-08-19T03:31:45.549Z,95.20
2022-08-19T03:34:18.671Z,95.10
2022-08-19T03:36:46.773Z,95.60
2022-08-19T03:39:13.624Z,95.60
2022-08-19T03:41:44.593Z,95.70
2022-08-19T03:44:19.030Z,95.90
2022-08-19T03:46:49.033Z,95.90
2022-08-19T03:49:18.174Z,95.90
2022-08-19T03:51:46.471Z,95.80
2022-08-19T03:54:15.839Z,95.90
2022-08-19T03:56:44.337Z,96.00
2022-08-19T03:59:14.409Z,95.80
2022-08-19T04:01:41.148Z,96.20
2022-08-19T04:04:07.859Z,95.80
2022-08-19T04:06:40.096Z,95.70
2022-08-19T04:09:10.327Z,95.60
2022-08-19T04:11:44.598Z,95.30
2022-08-19T04:14:19.232Z,95.60
2022-08-19T04:16:47.632Z,95.90
2022-08-19T04:19:15.511Z,96.10
2022-08-19T04:21:45.973Z,96.30
2022-08-19T04:24:13.733Z,96.70
2022-08-19T04:26:40.758Z,96.50
2022-08-19T04:29:12.495Z,96.50
2022-08-19T04:31:41.796Z,96.80
2022-08-19T04:34:13.644Z,96.80
2022-08-19T04:36:42.280Z,97.10
2022-08-19T04:39:12.910Z,97.50
2022-08-19T04:41:58.382Z,97.50
2022-08-19T04:44:26.479Z,97.40
2022-08-19T04:46:53.597Z,97.40
2022-08-19T04:49:23.339Z,97.70
2022-08-19T04:51:53.325Z,97.80
2022-08-19T04:54:37.661Z,97.60
2022-08-19T04:57:07.899Z,97.70
2022-08-19T04:59:35.545Z,97.50
2022-08-19T05:02:02.330Z,97.80
2022-08-19T05:04:32.482Z,97.90
2022-08-19T05:07:00.895Z,97.90
2022-08-19T05:09:28.779Z,97.80
2022-08-19T05:12:16.425Z,97.80
2022-08-19T05:14:43.190Z,97.70
2022-08-19T05:17:27.203Z,97.80
2022-08-19T05:20:14.013Z,97.80
2022-08-19T05:22:41.939Z,97.40
2022-08-19T05:25:13.921Z,97.30
2022-08-19T05:27:42.306Z,97.40
2022-08-19T05:30:10.138Z,96.90
2022-08-19T05:32:36.943Z,96.70
2022-08-19T05:35:04.668Z,96.80
2022-08-19T05:37:31.482Z,96.90
2022-08-19T05:39:58.293Z,96.90
2022-08-19T05:42:25.083Z,96.70
2022-08-19T05:44:52.472Z,96.70
2022-08-19T05:47:20.821Z,96.80
2022-08-19T05:49:48.375Z,96.80
2022-08-19T05:52:18.737Z,97.00
2022-08-19T05:54:51.012Z,96.90
2022-08-19T05:57:21.905Z,96.90
2022-08-19T05:59:49.449Z,96.80
2022-08-19T06:02:20.563Z,96.80
2022-08-19T06:04:47.544Z,97.10
2022-08-19T06:07:14.412Z,97.10
2022-08-19T06:09:43.702Z,97.00
2022-08-19T06:12:33.898Z,97.30
2022-08-19T06:15:03.396Z,97.30
2022-08-19T06:17:31.589Z,97.80
2022-08-19T06:19:59.416Z,97.60
2022-08-19T06:22:26.756Z,97.80
2022-08-19T06:24:53.629Z,97.70
2022-08-19T06:27:21.196Z,97.90
2022-08-19T06:29:48.130Z,98.00
2022-08-19T06:32:17.378Z,98.00
2022-08-19T06:34:44.377Z,98.50
2022-08-19T06:37:12.815Z,98.50
2022-08-19T06:39:41.970Z,98.90
2022-08-19T06:42:12.227Z,98.90
2022-08-19T06:44:43.344Z,99.30
2022-08-19T06:47:23.130Z,99.90
2022-08-19T06:49:54.296Z,99.90
2022-08-19T06:52:21.025Z,99.90
2022-08-19T06:54:55.694Z,99.90
2022-08-19T06:57:25.100Z,99.90
2022-08-19T06:59:52.150Z,99.90
2022-08-19T07:02:19.868Z,99.90
2022-08-19T07:04:46.768Z,99.90
2022-08-19T07:07:20.113Z,99.90
2022-08-19T07:10:00.042Z,99.90
2022-08-19T07:12:33.852Z,99.90
2022-08-19T07:15:02.723Z,99.90
2022-08-19T07:17:30.181Z,99.90
2022-08-19T07:19:57.914Z,99.90
2022-08-19T07:22:33.584Z,99.90
2022-08-19T07:25:00.773Z,99.90
2022-08-19T07:27:27.445Z,99.90
2022-08-19T07:29:56.053Z,99.90
2022-08-19T07:32:26.817Z,99.90
2022-08-19T07:34:53.628Z,99.90
2022-08-19T07:37:20.296Z,99.90
2022-08-19T07:39:47.082Z,99.90
2022-08-19T07:42:14.646Z,99.90
2022-08-19T07:44:42.426Z,99.90
2022-08-19T07:47:47.459Z,99.90
2022-08-19T07:50:08.610Z,99.90
2022-08-19T07:52:36.882Z,99.90
2022-08-19T07:55:05.079Z,99.90
2022-08-19T07:57:33.860Z,99.90
2022-08-19T08:00:00.655Z,99.90
2022-08-19T08:02:27.427Z,99.90
2022-08-19T08:05:12.805Z,99.90
2022-08-19T08:07:58.759Z,99.90
2022-08-19T08:10:25.986Z,99.90
2022-08-19T08:13:08.567Z,99.90
2022-08-19T08:15:42.818Z,99.90
2022-08-19T08:18:10.453Z,99.90
2022-08-19T08:20:37.233Z,99.90
2022-08-19T08:23:23.154Z,99.90
2022-08-19T08:25:50.431Z,99.90
2022-08-19T08:28:18.817Z,99.90
2022-08-19T08:30:48.317Z,99.90
2022-08-19T08:33:33.136Z,99.90
2022-08-19T08:36:17.242Z,99.90
2022-08-19T08:38:46.415Z,99.90
2022-08-19T08:41:31.449Z,99.90
2022-08-19T08:43:58.544Z,99.90
2022-08-19T08:46:31.689Z,99.90
2022-08-19T08:49:09.759Z,99.90
2022-08-19T08:54:15.214Z,99.90
2022-08-19T08:56:44.137Z,99.90
2022-08-19T08:59:21.584Z,99.90
2022-08-19T09:01:49.355Z,99.90
2022-08-19T09:04:16.877Z,99.90
2022-08-19T09:07:22.885Z,99.90
2022-08-19T09:10:28.080Z,99.90
2022-08-19T09:13:13.496Z,99.90
2022-08-19T09:15:45.749Z,99.90
2022-08-19T09:18:19.484Z,99.90
2022-08-19T09:20:48.389Z,99.90
2022-08-19T09:23:15.571Z,99.90
2022-08-19T09:25:42.773Z,99.90
2022-08-19T09:28:15.180Z,99.90
2022-08-19T09:30:49.534Z,99.90
2022-08-19T09:33:17.113Z,99.90
2022-08-19T09:35:53.014Z,99.90
2022-08-19T09:38:21.352Z,99.90
2022-08-19T09:40:48.078Z,99.90
2022-08-19T09:43:14.736Z,99.90
2022-08-19T09:45:41.720Z,99.90
2022-08-19T09:48:09.584Z,99.90
2022-08-19T09:50:51.449Z,99.90
2022-08-19T09:53:19.333Z,99.90
2022-08-19T09:55:46.107Z,99.90
2022-08-19T09:58:13.079Z,99.90
2022-08-19T10:00:40.143Z,99.90
2022-08-19T10:03:07.105Z,99.90
2022-08-19T10:05:49.080Z,99.90
2022-08-19T10:08:18.466Z,99.90
2022-08-19T10:10:48.440Z,99.90
2022-08-19T10:13:17.482Z,99.90
2022-08-19T10:15:47.346Z,99.90
2022-08-19T10:18:17.634Z,99.90
2022-08-19T10:20:46.404Z,99.90
2022-08-19T10:23:19.627Z,99.90
2022-08-19T10:25:46.383Z,99.90
2022-08-19T10:28:14.968Z,99.90
2022-08-19T10:30:42.781Z,99.90
2022-08-19T10:33:11.206Z,99.90
2022-08-19T10:35:56.570Z,99.90
2022-08-19T10:38:31.710Z,99.90
2022-08-19T10:40:59.417Z,99.90
2022-08-19T10:43:26.406Z,99.90
2022-08-19T10:45:57.002Z,99.90
2022-08-19T10:48:23.766Z,99.90
2022-08-19T10:51:08.978Z,99.90
2022-08-19T10:53:35.880Z,99.90
2022-08-19T10:56:21.909Z,99.90
2022-08-19T10:58:49.323Z,99.90
2022-08-19T11:01:16.077Z,99.90
2022-08-19T11:03:42.815Z,99.90
2022-08-19T11:06:09.975Z,99.90
2022-08-19T11:08:38.606Z,99.90
2022-08-19T11:11:06.983Z,99.90
2022-08-19T11:13:36.962Z,99.90
2022-08-19T11:16:26.797Z,99.90
2022-08-19T11:18:59.218Z,99.90
2022-08-19T11:21:27.589Z,99.90
2022-08-19T11:23:58.316Z,99.90
2022-08-19T11:26:25.895Z,99.90
2022-08-19T11:28:55.267Z,99.90
2022-08-19T11:31:29.118Z,99.90
2022-08-19T11:33:58.521Z,99.90
2022-08-19T11:36:25.241Z,99.90
2022-08-19T11:38:52.778Z,99.90
2022-08-19T11:41:21.543Z,99.90
2022-08-19T11:43:48.515Z,99.90
2022-08-19T11:46:17.081Z,99.90
2022-08-19T11:48:44.489Z,99.90
2022-08-19T11:51:14.118Z,99.90
2022-08-19T11:53:41.136Z,99.90
2022-08-19T11:56:10.187Z,99.90
2022-08-19T11:58:37.326Z,99.90
2022-08-19T12:01:10.166Z,99.90
2022-08-19T12:03:38.873Z,99.90
2022-08-19T12:06:07.768Z,99.90
2022-08-19T12:08:35.279Z,99.90
2022-08-19T12:11:02.349Z,99.90
2022-08-19T12:13:32.323Z,99.90
2022-08-19T12:15:59.396Z,99.90
2022-08-19T12:18:26.237Z,99.90
2022-08-19T12:20:55.513Z,99.90
2022-08-19T12:23:22.225Z,99.90
2022-08-19T12:25:53.065Z,99.90
2022-08-19T12:28:21.450Z,99.90
2022-08-19T12:30:49.301Z,99.90
2022-08-19T12:33:16.167Z,99.90
2022-08-19T12:35:47.436Z,99.90
2022-08-19T12:38:15.626Z,99.90
2022-08-19T12:40:43.044Z,99.90
2022-08-19T12:43:09.734Z,99.90
2022-08-19T12:45:37.100Z,99.90
2022-08-19T12:48:33.921Z,99.90
2022-08-19T12:50:52.019Z,99.90
2022-08-19T12:53:18.787Z,99.90
2022-08-19T12:55:45.463Z,99.90
2022-08-19T12:58:13.432Z,99.90
2022-08-19T13:00:40.811Z,99.90
2022-08-19T13:03:07.607Z,99.90
2022-08-19T13:05:35.185Z,99.90
2022-08-19T13:08:02.565Z,99.90
2022-08-19T13:10:35.843Z,99.90
2022-08-19T13:13:07.715Z,99.90
2022-08-19T13:15:36.659Z,99.90
2022-08-19T13:18:03.589Z,99.90
2022-08-19T13:20:30.693Z,99.90
2022-08-19T13:22:58.187Z,99.90
2022-08-19T13:25:26.353Z,99.90
2022-08-19T13:27:53.268Z,99.90
2022-08-19T13:30:39.701Z,99.90
2022-08-19T13:33:12.981Z,99.90
2022-08-19T13:35:51.533Z,99.90
2022-08-19T13:38:21.801Z,99.90
2022-08-19T13:40:50.541Z,99.90
2022-08-19T13:43:22.879Z,99.90
2022-08-19T13:45:56.248Z,99.90
2022-08-19T13:48:24.532Z,99.90
2022-08-19T13:50:51.217Z,99.90
2022-08-19T13:53:18.616Z,99.90
2022-08-19T13:55:45.369Z,99.90
2022-08-19T13:58:12.876Z,99.90
2022-08-19T14:00:46.965Z,99.90
2022-08-19T14:03:14.282Z,99.90
2022-08-19T14:05:41.035Z,99.90
2022-08-19T14:08:07.959Z,99.90
2022-08-19T14:10:34.821Z,99.90
2022-08-19T14:13:04.301Z,99.90
2022-08-19T14:15:31.693Z,99.90
2022-08-19T14:17:58.604Z,99.90
2022-08-19T14:20:25.978Z,99.90
2022-08-19T14:22:54.070Z,99.90
2022-08-19T14:25:24.055Z,99.90
2022-08-19T14:27:51.272Z,99.90
2022-08-19T14:30:26.401Z,99.90
2022-08-19T14:32:53.284Z,99.90
2022-08-19T14:35:19.997Z,99.90
2022-08-19T14:37:47.285Z,99.90
2022-08-19T14:40:17.783Z,99.90
2022-08-19T14:42:45.228Z,99.90
2022-08-19T14:45:12.837Z,99.90
2022-08-19T14:47:40.814Z,99.90
2022-08-19T14:50:10.490Z,99.90
2022-08-19T14:52:41.979Z,99.90
2022-08-19T14:55:09.218Z,99.90
2022-08-19T14:57:36.016Z,99.90
2022-08-19T15:00:03.892Z,99.90
2022-08-19T15:02:34.935Z,99.90
2022-08-19T15:05:02.650Z,99.90
2022-08-19T15:07:30.234Z,99.90
2022-08-19T15:09:58.423Z,99.90
2022-08-19T15:12:25.310Z,99.90
2022-08-19T15:14:55.817Z,99.90
2022-08-19T15:17:43.281Z,99.90
2022-08-19T15:20:12.298Z,99.90
2022-08-19T15:22:39.594Z,99.90
2022-08-19T15:25:09.641Z,99.90
2022-08-19T15:27:39.692Z,99.90
2022-08-19T15:30:09.228Z,99.90
2022-08-19T15:32:37.202Z,99.90
2022-08-19T15:35:05.970Z,99.90
2022-08-19T15:37:32.900Z,99.90
2022-08-19T15:40:06.130Z,99.90
2022-08-19T15:42:33.985Z,99.90
2022-08-19T15:45:02.304Z,99.90
2022-08-19T15:47:34.895Z,99.90
2022-08-19T15:50:07.125Z,99.90
2022-08-19T15:52:49.650Z,99.90
2022-08-19T15:55:32.190Z,99.90
2022-08-19T15:58:30.016Z,99.90
2022-08-19T16:01:21.535Z,99.90
2022-08-19T16:04:11.389Z,99.90
2022-08-19T16:06:47.461Z,99.90
2022-08-19T16:09:15.687Z,99.90
2022-08-19T16:11:46.672Z,99.90
2022-08-19T16:14:15.459Z,99.90
2022-08-19T16:16:46.964Z,99.90
2022-08-19T16:19:17.490Z,99.90
2022-08-19T16:21:46.607Z,99.90
2022-08-19T16:24:16.642Z,99.90
2022-08-19T16:26:43.994Z,99.90
2022-08-19T16:29:12.905Z,99.90
2022-08-19T16:31:43.398Z,99.90
2022-08-19T16:34:10.518Z,99.90
2022-08-19T16:36:41.977Z,99.90
2022-08-19T16:39:10.756Z,99.90
2022-08-19T16:41:38.225Z,99.90
2022-08-19T16:44:07.155Z,99.90
2022-08-19T16:46:34.016Z,99.90
2022-08-19T16:49:00.833Z,99.90
2022-08-19T16:51:28.401Z,99.90
2022-08-19T16:53:55.276Z,99.90
2022-08-19T16:56:22.310Z,99.90
2022-08-19T16:58:50.419Z,99.90
2022-08-19T17:01:18.292Z,99.90
2022-08-19T17:03:45.478Z,99.90
2022-08-19T17:06:20.713Z,99.90
2022-08-19T17:08:52.164Z,99.90
2022-08-19T17:11:20.053Z,99.90
2022-08-19T17:13:48.330Z,99.90
2022-08-19T17:16:16.881Z,99.90
2022-08-19T17:18:44.506Z,99.90
2022-08-19T17:21:13.025Z,99.90
2022-08-19T17:23:43.713Z,99.90
2022-08-19T17:26:18.469Z,99.90
2022-08-19T17:28:49.351Z,99.90
2022-08-19T17:31:17.784Z,99.90
2022-08-19T17:33:48.480Z,99.90
2022-08-19T17:36:17.997Z,99.90
2022-08-19T17:38:45.183Z,99.90
2022-08-19T17:41:12.216Z,99.90
2022-08-19T17:43:43.390Z,99.90
2022-08-19T17:46:17.764Z,99.90
2022-08-19T17:48:51.419Z,99.90
2022-08-19T17:51:22.395Z,99.90
2022-08-19T17:53:50.992Z,99.90
2022-08-19T17:56:18.161Z,99.90
2022-08-19T17:58:48.976Z,99.90
2022-08-19T18:01:29.506Z,99.90
2022-08-19T18:04:09.988Z,99.90
2022-08-19T18:06:37.322Z,99.90
2022-08-19T18:09:05.904Z,99.90
2022-08-19T18:11:33.585Z,99.90
2022-08-19T18:14:00.536Z,99.90
2022-08-19T18:16:27.261Z,99.90
2022-08-19T18:18:54.741Z,99.90
2022-08-19T18:21:22.273Z,99.90
2022-08-19T18:23:49.098Z,99.90
2022-08-19T18:26:15.811Z,99.90
2022-08-19T18:28:49.592Z,99.90
2022-08-19T18:31:17.344Z,99.90
2022-08-19T18:33:45.182Z,99.90
2022-08-19T18:36:12.280Z,99.90
2022-08-19T18:38:57.593Z,99.90
2022-08-19T18:41:43.501Z,99.90
2022-08-19T18:44:29.098Z,99.90
2022-08-19T18:47:14.452Z,99.90
2022-08-19T18:49:41.195Z,99.90
2022-08-19T18:52:08.006Z,99.90
2022-08-19T18:54:35.798Z,99.90
2022-08-19T18:57:05.673Z,99.90
2022-08-19T18:59:32.854Z,99.90
2022-08-19T19:02:00.795Z,99.90
2022-08-19T19:04:33.671Z,99.90
2022-08-19T19:07:00.734Z,99.90
2022-08-19T19:09:28.482Z,99.90
2022-08-19T19:11:58.534Z,99.90
2022-08-19T19:14:48.543Z,99.90
2022-08-19T19:17:16.681Z,99.90
2022-08-19T19:19:44.308Z,99.90
2022-08-19T19:22:14.933Z,99.90
2022-08-19T19:24:44.919Z,99.90
2022-08-19T19:27:13.126Z,99.90
2022-08-19T19:29:41.297Z,99.90
2022-08-19T19:32:11.712Z,99.90
2022-08-19T19:34:38.935Z,99.90
2022-08-19T19:37:05.860Z,99.90
2022-08-19T19:39:46.347Z,99.90
2022-08-19T19:42:19.862Z,99.90
2022-08-19T19:44:48.868Z,99.90
2022-08-19T19:47:18.443Z,99.90
2022-08-19T19:50:13.928Z,99.90
2022-08-19T19:52:38.818Z,99.90
2022-08-19T19:55:06.487Z,99.90
2022-08-19T19:57:33.195Z,99.90
2022-08-19T20:00:00.090Z,99.90
2022-08-19T20:02:26.918Z,99.90
2022-08-19T20:04:54.994Z,99.90
2022-08-19T20:07:41.699Z,99.90
2022-08-19T20:10:08.732Z,99.90
2022-08-19T20:12:35.455Z,99.90
2022-08-19T20:15:03.254Z,99.90
2022-08-19T20:17:29.962Z,99.90
2022-08-19T20:19:57.453Z,99.90
2022-08-19T20:22:25.726Z,99.90
2022-08-19T20:24:53.780Z,99.90
2022-08-19T20:27:20.568Z,99.90
2022-08-19T20:29:50.955Z,99.90
2022-08-19T20:32:18.756Z,99.90
2022-08-19T20:34:49.022Z,99.90
2022-08-19T20:37:15.800Z,99.90
2022-08-19T20:39:42.727Z,99.90
2022-08-19T20:42:09.517Z,99.90
2022-08-19T20:44:37.638Z,99.90
2022-08-19T20:47:04.474Z,99.90
2022-08-19T20:49:32.082Z,99.90
2022-08-19T20:51:58.882Z,99.90
2022-08-19T20:54:26.908Z,99.90
2022-08-19T20:56:54.342Z,99.90
2022-08-19T20:59:22.088Z,99.90
2022-08-19T21:01:51.622Z,99.90
2022-08-19T21:04:21.136Z,99.90
2022-08-19T21:06:48.827Z,99.90
2022-08-19T21:09:15.573Z,99.90
2022-08-19T21:11:42.316Z,99.90
2022-08-19T21:14:09.032Z,99.90
2022-08-19T21:16:35.978Z,99.90
2022-08-19T21:19:04.751Z,99.90
2022-08-19T21:21:33.082Z,99.90
2022-08-19T21:23:59.875Z,99.90
2022-08-19T21:26:26.747Z,99.90
2022-08-19T21:28:53.590Z,99.90
2022-08-19T21:31:21.133Z,99.90
2022-08-19T21:33:48.011Z,99.90
2022-08-19T21:36:14.808Z,99.90
2022-08-19T21:38:41.631Z,99.90
2022-08-19T21:41:08.379Z,99.90
2022-08-19T21:43:36.566Z,99.90
2022-08-19T21:46:03.752Z,99.90
2022-08-19T21:48:30.593Z,99.90
2022-08-19T21:50:57.341Z,99.90
2022-08-19T21:53:24.128Z,99.90
2022-08-19T21:55:53.355Z,99.90
2022-08-19T21:58:30.030Z,99.90
2022-08-19T22:00:59.115Z,99.90
2022-08-19T22:03:26.534Z,99.90
2022-08-19T22:05:53.367Z,99.90
2022-08-19T22:08:20.174Z,99.90
2022-08-19T22:10:47.218Z,99.90
2022-08-19T22:13:14.559Z,99.90
2022-08-19T22:15:42.406Z,99.90
2022-08-19T22:18:09.292Z,99.90
2022-08-19T22:20:36.465Z,99.90
2022-08-19T22:23:05.830Z,99.90
2022-08-19T22:25:37.569Z,99.90
2022-08-19T22:28:08.181Z,99.90
2022-08-19T22:30:41.663Z,99.90
2022-08-19T22:33:12.421Z,99.90
2022-08-19T22:35:41.156Z,99.90
2022-08-19T22:38:10.196Z,99.90
2022-08-19T22:40:40.020Z,99.90
2022-08-19T22:43:08.246Z,99.90
2022-08-19T22:45:36.325Z,99.90
2022-08-19T22:48:07.953Z,99.90
2022-08-19T22:50:35.878Z,99.90
2022-08-19T22:53:02.937Z,99.90
2022-08-19T22:55:30.623Z,99.90
2022-08-19T22:57:58.846Z,99.90
2022-08-19T23:00:27.839Z,99.90
2022-08-19T23:02:56.298Z,99.90
2022-08-19T23:05:25.545Z,99.90
2022-08-19T23:07:54.228Z,99.90
2022-08-19T23:10:26.734Z,99.90
2022-08-19T23:12:57.659Z,99.90
2022-08-19T23:15:30.447Z,99.90
2022-08-19T23:17:59.532Z,99.90
2022-08-19T23:20:29.556Z,99.90
2022-08-19T23:22:57.621Z,99.90
2022-08-19T23:25:27.707Z,99.90
2022-08-19T23:28:13.108Z,99.90
2022-08-19T23:30:44.381Z,99.90
2022-08-19T23:33:24.460Z,99.90
2022-08-19T23:36:00.898Z,99.90
2022-08-19T23:38:29.899Z,99.90
2022-08-19T23:40:59.486Z,99.90
2022-08-19T23:43:29.590Z,99.90
2022-08-19T23:46:00.950Z,99.90
2022-08-19T23:48:29.132Z,99.90
2022-08-19T23:50:56.472Z,99.90
2022-08-19T23:53:23.613Z,99.90
2022-08-19T23:55:50.346Z,99.90
2022-08-19T23:58:18.227Z,99.90
